USTRANSCOM 7626


KSUU
Travis Air Force Base
Fairfield, California, US
PHNL
Daniel K Inouye International Airport
Honolulu, Hawaii, US

Activity Log

Date Flight Route Aircraft Duration
03/12/2019 CMB826 WAPEX PYE BEBOP R464 BITTA KAENA2 B752 6h 00m

Route Details

Aircraft Information
Primary: Boeing 757-200SF
Backup: Not Available
Route Data
Distance: 2117nm
Sched. Duration: 5h 29m
Avg. Duration: 6h 00m (+71m)
Times Flown: 1
Recm'd Route: BESSA PYE BEBOP R464 BITTA
Planned Altitude: 32,000ft
Origin Wx: KSUU 310458Z AUTO 00000KT 10SM CLR 10/07 A3028 RMK AO2 SLP261 T01020071 $
Dest. Wx: PHNL 310553Z 07012KT 10SM FEW035 FEW080 OVC200 23/18 A3003 RMK AO2 SLP169 T02330178 10272 20233 53009
Notes: USTRANSCOM CONTRACT FLIGHT

Financial History
Total Freight: 59,204lbs
Average Load: 59,204lbs/flt
Fuel Used: 45,121lbs
Avg. Fuel Used: 45,121lbs/flt
Fuel Expense: $41,511
Avg. Fuel Expense: $41,511
Avg. Fuel Cost: $0.92/lbs
Total Gross Income: $203,070
Pilot Pay: $229
Total Expenses: $21,984
Total Revenue: $138,141
Average Revenue: $203,069.72